sensor_id;sensor_type;location;lat;lon;timestamp;P1;durP1;ratioP1;P2;durP2;ratioP2
47749;SDS011;49810;48.160;10.812;2023-08-12T00:00:19;10.00;;;6.75;;
47749;SDS011;49810;48.160;10.812;2023-08-12T00:02:49;15.57;;;7.65;;
47749;SDS011;49810;48.160;10.812;2023-08-12T00:05:17;14.93;;;8.35;;
47749;SDS011;49810;48.160;10.812;2023-08-12T00:07:45;15.55;;;7.97;;
47749;SDS011;49810;48.160;10.812;2023-08-12T00:10:13;17.02;;;8.05;;
47749;SDS011;49810;48.160;10.812;2023-08-12T00:12:41;14.93;;;8.57;;
47749;SDS011;49810;48.160;10.812;2023-08-12T00:15:09;12.65;;;7.68;;
47749;SDS011;49810;48.160;10.812;2023-08-12T00:17:37;10.05;;;6.82;;
47749;SDS011;49810;48.160;10.812;2023-08-12T00:20:10;10.68;;;7.70;;
47749;SDS011;49810;48.160;10.812;2023-08-12T00:22:39;13.32;;;7.72;;
47749;SDS011;49810;48.160;10.812;2023-08-12T00:25:07;12.93;;;7.57;;
47749;SDS011;49810;48.160;10.812;2023-08-12T00:27:35;11.80;;;7.28;;
47749;SDS011;49810;48.160;10.812;2023-08-12T00:30:05;12.68;;;7.28;;
47749;SDS011;49810;48.160;10.812;2023-08-12T00:32:33;11.02;;;7.57;;
47749;SDS011;49810;48.160;10.812;2023-08-12T00:35:01;10.73;;;6.97;;
47749;SDS011;49810;48.160;10.812;2023-08-12T00:37:32;11.27;;;7.00;;
47749;SDS011;49810;48.160;10.812;2023-08-12T00:40:00;11.73;;;6.70;;
47749;SDS011;49810;48.160;10.812;2023-08-12T00:42:28;9.57;;;6.97;;
47749;SDS011;49810;48.160;10.812;2023-08-12T00:44:57;10.13;;;7.10;;
47749;SDS011;49810;48.160;10.812;2023-08-12T00:47:25;11.60;;;6.88;;
47749;SDS011;49810;48.160;10.812;2023-08-12T00:49:53;9.98;;;6.72;;
47749;SDS011;49810;48.160;10.812;2023-08-12T00:52:22;9.27;;;7.28;;
47749;SDS011;49810;48.160;10.812;2023-08-12T00:54:52;9.98;;;7.63;;
47749;SDS011;49810;48.160;10.812;2023-08-12T00:57:20;13.23;;;7.75;;
47749;SDS011;49810;48.160;10.812;2023-08-12T00:59:48;13.85;;;8.65;;
47749;SDS011;49810;48.160;10.812;2023-08-12T01:02:16;11.07;;;8.13;;
47749;SDS011;49810;48.160;10.812;2023-08-12T01:04:44;12.00;;;8.25;;
47749;SDS011;49810;48.160;10.812;2023-08-12T01:07:13;10.80;;;8.65;;
47749;SDS011;49810;48.160;10.812;2023-08-12T01:09:41;12.30;;;9.27;;
47749;SDS011;49810;48.160;10.812;2023-08-12T01:12:12;11.57;;;9.23;;
47749;SDS011;49810;48.160;10.812;2023-08-12T01:14:45;11.38;;;8.70;;
47749;SDS011;49810;48.160;10.812;2023-08-12T01:17:14;13.48;;;9.45;;
47749;SDS011;49810;48.160;10.812;2023-08-12T01:19:43;15.85;;;9.02;;
47749;SDS011;49810;48.160;10.812;2023-08-12T01:22:11;11.73;;;8.32;;
47749;SDS011;49810;48.160;10.812;2023-08-12T01:24:42;14.32;;;9.93;;
47749;SDS011;49810;48.160;10.812;2023-08-12T01:27:10;12.23;;;8.50;;
47749;SDS011;49810;48.160;10.812;2023-08-12T01:29:39;9.95;;;8.25;;
47749;SDS011;49810;48.160;10.812;2023-08-12T01:32:09;13.23;;;9.00;;
47749;SDS011;49810;48.160;10.812;2023-08-12T01:34:43;11.00;;;9.07;;
47749;SDS011;49810;48.160;10.812;2023-08-12T01:37:14;16.38;;;9.27;;
47749;SDS011;49810;48.160;10.812;2023-08-12T01:39:46;11.90;;;8.95;;
47749;SDS011;49810;48.160;10.812;2023-08-12T01:42:15;12.30;;;9.40;;
47749;SDS011;49810;48.160;10.812;2023-08-12T01:44:44;13.00;;;9.40;;
47749;SDS011;49810;48.160;10.812;2023-08-12T01:47:12;12.20;;;8.77;;
47749;SDS011;49810;48.160;10.812;2023-08-12T01:49:40;11.23;;;8.75;;
47749;SDS011;49810;48.160;10.812;2023-08-12T01:52:08;13.18;;;8.80;;
47749;SDS011;49810;48.160;10.812;2023-08-12T01:54:37;13.80;;;9.88;;
47749;SDS011;49810;48.160;10.812;2023-08-12T01:57:07;12.98;;;9.60;;
47749;SDS011;49810;48.160;10.812;2023-08-12T01:59:37;13.35;;;8.82;;
47749;SDS011;49810;48.160;10.812;2023-08-12T02:02:05;12.77;;;8.23;;
47749;SDS011;49810;48.160;10.812;2023-08-12T02:04:33;13.60;;;8.25;;
47749;SDS011;49810;48.160;10.812;2023-08-12T02:07:03;11.52;;;7.97;;
47749;SDS011;49810;48.160;10.812;2023-08-12T02:09:31;10.75;;;7.78;;
47749;SDS011;49810;48.160;10.812;2023-08-12T02:11:59;11.60;;;8.27;;
47749;SDS011;49810;48.160;10.812;2023-08-12T02:14:28;9.95;;;7.70;;
47749;SDS011;49810;48.160;10.812;2023-08-12T02:16:56;12.63;;;9.13;;
47749;SDS011;49810;48.160;10.812;2023-08-12T02:19:24;12.65;;;8.73;;
47749;SDS011;49810;48.160;10.812;2023-08-12T02:21:52;19.40;;;9.00;;
47749;SDS011;49810;48.160;10.812;2023-08-12T02:24:20;10.60;;;8.43;;
47749;SDS011;49810;48.160;10.812;2023-08-12T02:26:48;14.90;;;9.40;;
47749;SDS011;49810;48.160;10.812;2023-08-12T02:29:16;10.57;;;8.85;;
47749;SDS011;49810;48.160;10.812;2023-08-12T02:31:46;11.48;;;8.65;;
47749;SDS011;49810;48.160;10.812;2023-08-12T02:34:14;14.35;;;9.75;;
47749;SDS011;49810;48.160;10.812;2023-08-12T02:36:42;12.30;;;9.80;;
47749;SDS011;49810;48.160;10.812;2023-08-12T02:39:10;13.55;;;8.98;;
47749;SDS011;49810;48.160;10.812;2023-08-12T02:41:38;15.18;;;9.32;;
47749;SDS011;49810;48.160;10.812;2023-08-12T02:44:06;11.15;;;9.30;;
47749;SDS011;49810;48.160;10.812;2023-08-12T02:46:34;16.00;;;9.60;;
47749;SDS011;49810;48.160;10.812;2023-08-12T02:49:03;12.90;;;9.13;;
47749;SDS011;49810;48.160;10.812;2023-08-12T02:51:31;12.25;;;9.30;;
47749;SDS011;49810;48.160;10.812;2023-08-12T02:53:59;12.95;;;9.35;;
47749;SDS011;49810;48.160;10.812;2023-08-12T02:56:27;12.55;;;9.43;;
47749;SDS011;49810;48.160;10.812;2023-08-12T02:58:55;15.77;;;9.90;;
47749;SDS011;49810;48.160;10.812;2023-08-12T03:01:23;14.77;;;10.00;;
47749;SDS011;49810;48.160;10.812;2023-08-12T03:03:51;11.73;;;9.23;;
47749;SDS011;49810;48.160;10.812;2023-08-12T03:06:20;12.50;;;9.55;;
47749;SDS011;49810;48.160;10.812;2023-08-12T03:08:49;11.85;;;9.43;;
47749;SDS011;49810;48.160;10.812;2023-08-12T03:11:16;16.17;;;10.60;;
47749;SDS011;49810;48.160;10.812;2023-08-12T03:13:45;12.82;;;10.45;;
47749;SDS011;49810;48.160;10.812;2023-08-12T03:16:14;12.13;;;9.32;;
47749;SDS011;49810;48.160;10.812;2023-08-12T03:18:44;13.20;;;10.10;;
47749;SDS011;49810;48.160;10.812;2023-08-12T03:21:12;12.48;;;9.90;;
47749;SDS011;49810;48.160;10.812;2023-08-12T03:23:42;11.82;;;9.93;;
47749;SDS011;49810;48.160;10.812;2023-08-12T03:26:10;14.07;;;10.55;;
47749;SDS011;49810;48.160;10.812;2023-08-12T03:28:38;11.48;;;9.43;;
47749;SDS011;49810;48.160;10.812;2023-08-12T03:31:07;11.23;;;9.25;;
47749;SDS011;49810;48.160;10.812;2023-08-12T03:33:35;12.30;;;9.68;;
47749;SDS011;49810;48.160;10.812;2023-08-12T03:36:03;16.45;;;9.60;;
47749;SDS011;49810;48.160;10.812;2023-08-12T03:38:32;14.88;;;10.63;;
47749;SDS011;49810;48.160;10.812;2023-08-12T03:41:04;12.65;;;10.25;;
47749;SDS011;49810;48.160;10.812;2023-08-12T03:43:33;12.82;;;10.23;;
47749;SDS011;49810;48.160;10.812;2023-08-12T03:46:01;14.52;;;11.02;;
47749;SDS011;49810;48.160;10.812;2023-08-12T03:48:31;13.65;;;10.05;;
47749;SDS011;49810;48.160;10.812;2023-08-12T03:50:59;13.77;;;10.48;;
47749;SDS011;49810;48.160;10.812;2023-08-12T03:53:27;13.63;;;10.55;;
47749;SDS011;49810;48.160;10.812;2023-08-12T03:55:55;12.43;;;9.77;;
47749;SDS011;49810;48.160;10.812;2023-08-12T03:58:25;14.27;;;10.30;;
47749;SDS011;49810;48.160;10.812;2023-08-12T04:00:53;16.75;;;11.13;;
47749;SDS011;49810;48.160;10.812;2023-08-12T04:03:21;18.35;;;11.32;;
47749;SDS011;49810;48.160;10.812;2023-08-12T04:05:49;13.07;;;10.30;;
47749;SDS011;49810;48.160;10.812;2023-08-12T04:08:21;12.77;;;10.13;;
47749;SDS011;49810;48.160;10.812;2023-08-12T04:10:49;13.18;;;10.80;;
47749;SDS011;49810;48.160;10.812;2023-08-12T04:13:17;14.13;;;10.90;;
47749;SDS011;49810;48.160;10.812;2023-08-12T04:15:49;15.75;;;11.93;;
47749;SDS011;49810;48.160;10.812;2023-08-12T04:18:17;17.75;;;11.95;;
47749;SDS011;49810;48.160;10.812;2023-08-12T04:20:45;15.23;;;11.40;;
47749;SDS011;49810;48.160;10.812;2023-08-12T04:23:14;14.73;;;11.70;;
47749;SDS011;49810;48.160;10.812;2023-08-12T04:25:43;14.90;;;11.48;;
47749;SDS011;49810;48.160;10.812;2023-08-12T04:28:12;16.33;;;10.90;;
47749;SDS011;49810;48.160;10.812;2023-08-12T04:30:41;14.35;;;11.27;;
47749;SDS011;49810;48.160;10.812;2023-08-12T04:33:11;12.82;;;10.38;;
47749;SDS011;49810;48.160;10.812;2023-08-12T04:35:40;12.50;;;9.63;;
47749;SDS011;49810;48.160;10.812;2023-08-12T04:38:09;12.27;;;10.00;;
47749;SDS011;49810;48.160;10.812;2023-08-12T04:40:38;12.93;;;9.52;;
47749;SDS011;49810;48.160;10.812;2023-08-12T04:43:07;13.85;;;10.30;;
47749;SDS011;49810;48.160;10.812;2023-08-12T04:45:35;16.13;;;10.32;;
47749;SDS011;49810;48.160;10.812;2023-08-12T04:48:04;14.25;;;9.73;;
47749;SDS011;49810;48.160;10.812;2023-08-12T04:50:34;14.57;;;9.13;;
47749;SDS011;49810;48.160;10.812;2023-08-12T04:53:03;11.23;;;9.35;;
47749;SDS011;49810;48.160;10.812;2023-08-12T04:55:31;15.10;;;9.68;;
47749;SDS011;49810;48.160;10.812;2023-08-12T04:58:00;13.75;;;10.38;;
47749;SDS011;49810;48.160;10.812;2023-08-12T05:00:31;14.48;;;9.40;;
47749;SDS011;49810;48.160;10.812;2023-08-12T05:02:59;11.48;;;9.00;;
47749;SDS011;49810;48.160;10.812;2023-08-12T05:05:28;11.77;;;9.60;;
47749;SDS011;49810;48.160;10.812;2023-08-12T05:07:57;12.05;;;8.82;;
47749;SDS011;49810;48.160;10.812;2023-08-12T05:10:26;15.52;;;9.52;;
47749;SDS011;49810;48.160;10.812;2023-08-12T05:12:55;10.40;;;8.65;;
47749;SDS011;49810;48.160;10.812;2023-08-12T05:15:24;11.18;;;8.43;;
47749;SDS011;49810;48.160;10.812;2023-08-12T05:17:52;15.68;;;9.25;;
47749;SDS011;49810;48.160;10.812;2023-08-12T05:20:22;10.70;;;8.23;;
47749;SDS011;49810;48.160;10.812;2023-08-12T05:22:50;12.25;;;8.45;;
47749;SDS011;49810;48.160;10.812;2023-08-12T05:25:19;12.80;;;9.27;;
47749;SDS011;49810;48.160;10.812;2023-08-12T05:27:47;13.77;;;9.20;;
47749;SDS011;49810;48.160;10.812;2023-08-12T05:30:15;10.55;;;8.50;;
47749;SDS011;49810;48.160;10.812;2023-08-12T05:32:43;13.63;;;9.25;;
47749;SDS011;49810;48.160;10.812;2023-08-12T05:35:11;12.48;;;8.80;;
47749;SDS011;49810;48.160;10.812;2023-08-12T05:37:39;11.82;;;8.18;;
47749;SDS011;49810;48.160;10.812;2023-08-12T05:40:08;12.30;;;8.40;;
47749;SDS011;49810;48.160;10.812;2023-08-12T05:42:37;11.65;;;8.60;;
47749;SDS011;49810;48.160;10.812;2023-08-12T05:45:05;11.95;;;7.85;;
47749;SDS011;49810;48.160;10.812;2023-08-12T05:47:36;12.18;;;8.05;;
47749;SDS011;49810;48.160;10.812;2023-08-12T05:50:05;11.27;;;7.72;;
47749;SDS011;49810;48.160;10.812;2023-08-12T05:52:33;11.70;;;7.50;;
47749;SDS011;49810;48.160;10.812;2023-08-12T05:55:03;10.18;;;7.40;;
47749;SDS011;49810;48.160;10.812;2023-08-12T05:57:32;9.82;;;7.20;;
47749;SDS011;49810;48.160;10.812;2023-08-12T06:00:01;11.93;;;6.88;;
47749;SDS011;49810;48.160;10.812;2023-08-12T06:02:37;7.60;;;5.80;;
47749;SDS011;49810;48.160;10.812;2023-08-12T06:05:05;11.18;;;6.22;;
47749;SDS011;49810;48.160;10.812;2023-08-12T06:07:35;9.57;;;6.13;;
47749;SDS011;49810;48.160;10.812;2023-08-12T06:10:03;10.73;;;6.00;;
47749;SDS011;49810;48.160;10.812;2023-08-12T06:12:31;9.85;;;6.10;;
47749;SDS011;49810;48.160;10.812;2023-08-12T06:15:01;7.35;;;5.65;;
47749;SDS011;49810;48.160;10.812;2023-08-12T06:17:29;6.63;;;5.35;;
47749;SDS011;49810;48.160;10.812;2023-08-12T06:19:59;10.25;;;4.93;;
47749;SDS011;49810;48.160;10.812;2023-08-12T06:22:27;9.80;;;4.95;;
47749;SDS011;49810;48.160;10.812;2023-08-12T06:24:55;7.32;;;4.55;;
47749;SDS011;49810;48.160;10.812;2023-08-12T06:27:23;6.65;;;4.35;;
47749;SDS011;49810;48.160;10.812;2023-08-12T06:29:51;6.90;;;4.40;;
47749;SDS011;49810;48.160;10.812;2023-08-12T06:32:20;6.22;;;4.68;;
47749;SDS011;49810;48.160;10.812;2023-08-12T06:34:48;6.30;;;4.18;;
47749;SDS011;49810;48.160;10.812;2023-08-12T06:37:16;8.50;;;4.65;;
47749;SDS011;49810;48.160;10.812;2023-08-12T06:39:44;8.38;;;4.35;;
47749;SDS011;49810;48.160;10.812;2023-08-12T06:42:12;6.32;;;3.97;;
47749;SDS011;49810;48.160;10.812;2023-08-12T06:44:44;6.95;;;3.92;;
47749;SDS011;49810;48.160;10.812;2023-08-12T06:47:12;6.15;;;3.92;;
47749;SDS011;49810;48.160;10.812;2023-08-12T06:49:41;7.50;;;4.15;;
47749;SDS011;49810;48.160;10.812;2023-08-12T06:52:09;6.03;;;3.97;;
47749;SDS011;49810;48.160;10.812;2023-08-12T06:54:37;10.23;;;3.90;;
47749;SDS011;49810;48.160;10.812;2023-08-12T06:57:05;5.50;;;4.05;;
47749;SDS011;49810;48.160;10.812;2023-08-12T06:59:33;7.38;;;4.07;;
47749;SDS011;49810;48.160;10.812;2023-08-12T07:02:00;6.85;;;3.75;;
47749;SDS011;49810;48.160;10.812;2023-08-12T07:04:29;6.13;;;3.90;;
47749;SDS011;49810;48.160;10.812;2023-08-12T07:06:59;6.53;;;4.05;;
47749;SDS011;49810;48.160;10.812;2023-08-12T07:09:27;6.53;;;4.55;;
47749;SDS011;49810;48.160;10.812;2023-08-12T07:11:55;5.85;;;3.92;;
47749;SDS011;49810;48.160;10.812;2023-08-12T07:14:23;9.57;;;4.47;;
47749;SDS011;49810;48.160;10.812;2023-08-12T07:16:52;6.53;;;4.05;;
47749;SDS011;49810;48.160;10.812;2023-08-12T07:19:19;9.20;;;4.15;;
47749;SDS011;49810;48.160;10.812;2023-08-12T07:21:47;5.50;;;3.72;;
47749;SDS011;49810;48.160;10.812;2023-08-12T07:24:17;8.52;;;4.38;;
47749;SDS011;49810;48.160;10.812;2023-08-12T07:26:44;6.07;;;3.70;;
47749;SDS011;49810;48.160;10.812;2023-08-12T07:29:14;7.03;;;3.80;;
47749;SDS011;49810;48.160;10.812;2023-08-12T07:31:42;9.02;;;4.10;;
47749;SDS011;49810;48.160;10.812;2023-08-12T07:34:10;6.30;;;4.07;;
47749;SDS011;49810;48.160;10.812;2023-08-12T07:36:39;6.90;;;4.07;;
47749;SDS011;49810;48.160;10.812;2023-08-12T07:39:07;5.78;;;3.78;;
47749;SDS011;49810;48.160;10.812;2023-08-12T07:41:37;4.97;;;3.50;;
47749;SDS011;49810;48.160;10.812;2023-08-12T07:44:05;6.97;;;3.22;;
47749;SDS011;49810;48.160;10.812;2023-08-12T07:46:33;5.03;;;3.65;;
47749;SDS011;49810;48.160;10.812;2023-08-12T07:49:01;5.88;;;4.28;;
47749;SDS011;49810;48.160;10.812;2023-08-12T07:51:29;7.75;;;4.38;;
47749;SDS011;49810;48.160;10.812;2023-08-12T07:53:57;29.95;;;18.40;;
47749;SDS011;49810;48.160;10.812;2023-08-12T07:56:24;4.78;;;3.28;;
47749;SDS011;49810;48.160;10.812;2023-08-12T07:58:54;5.28;;;3.67;;
47749;SDS011;49810;48.160;10.812;2023-08-12T08:01:22;5.05;;;3.50;;
47749;SDS011;49810;48.160;10.812;2023-08-12T08:03:50;4.93;;;3.58;;
47749;SDS011;49810;48.160;10.812;2023-08-12T08:06:17;9.05;;;3.72;;
47749;SDS011;49810;48.160;10.812;2023-08-12T08:08:45;7.00;;;3.67;;
47749;SDS011;49810;48.160;10.812;2023-08-12T08:11:13;5.25;;;3.17;;
47749;SDS011;49810;48.160;10.812;2023-08-12T08:13:41;6.90;;;3.67;;
47749;SDS011;49810;48.160;10.812;2023-08-12T08:16:10;8.13;;;3.72;;
47749;SDS011;49810;48.160;10.812;2023-08-12T08:18:39;6.03;;;3.00;;
47749;SDS011;49810;48.160;10.812;2023-08-12T08:21:07;4.30;;;3.20;;
47749;SDS011;49810;48.160;10.812;2023-08-12T08:23:35;5.43;;;3.35;;
47749;SDS011;49810;48.160;10.812;2023-08-12T08:26:03;3.40;;;2.67;;
47749;SDS011;49810;48.160;10.812;2023-08-12T08:28:31;6.75;;;3.15;;
47749;SDS011;49810;48.160;10.812;2023-08-12T08:30:59;5.50;;;3.17;;
47749;SDS011;49810;48.160;10.812;2023-08-12T08:33:28;8.23;;;3.22;;
47749;SDS011;49810;48.160;10.812;2023-08-12T08:35:55;6.72;;;3.60;;
47749;SDS011;49810;48.160;10.812;2023-08-12T08:38:24;6.35;;;3.08;;
47749;SDS011;49810;48.160;10.812;2023-08-12T08:40:52;5.40;;;3.05;;
47749;SDS011;49810;48.160;10.812;2023-08-12T08:43:20;23.65;;;14.38;;
47749;SDS011;49810;48.160;10.812;2023-08-12T08:45:48;5.50;;;3.33;;
47749;SDS011;49810;48.160;10.812;2023-08-12T08:48:17;5.97;;;3.42;;
47749;SDS011;49810;48.160;10.812;2023-08-12T08:50:47;5.63;;;3.30;;
47749;SDS011;49810;48.160;10.812;2023-08-12T08:53:14;4.45;;;3.10;;
47749;SDS011;49810;48.160;10.812;2023-08-12T08:55:43;5.65;;;3.55;;
47749;SDS011;49810;48.160;10.812;2023-08-12T08:58:11;5.22;;;3.53;;
47749;SDS011;49810;48.160;10.812;2023-08-12T09:00:46;4.47;;;3.28;;
47749;SDS011;49810;48.160;10.812;2023-08-12T09:03:15;5.65;;;3.78;;
47749;SDS011;49810;48.160;10.812;2023-08-12T09:05:42;6.15;;;3.40;;
47749;SDS011;49810;48.160;10.812;2023-08-12T09:08:12;5.63;;;3.25;;
47749;SDS011;49810;48.160;10.812;2023-08-12T09:10:40;5.07;;;3.72;;
47749;SDS011;49810;48.160;10.812;2023-08-12T09:13:08;5.88;;;3.72;;
47749;SDS011;49810;48.160;10.812;2023-08-12T09:15:38;6.53;;;3.45;;
47749;SDS011;49810;48.160;10.812;2023-08-12T09:18:06;5.00;;;2.83;;
47749;SDS011;49810;48.160;10.812;2023-08-12T09:20:34;4.35;;;3.28;;
47749;SDS011;49810;48.160;10.812;2023-08-12T09:23:02;5.32;;;3.17;;
47749;SDS011;49810;48.160;10.812;2023-08-12T09:25:33;4.60;;;2.97;;
47749;SDS011;49810;48.160;10.812;2023-08-12T09:28:01;4.80;;;3.00;;
47749;SDS011;49810;48.160;10.812;2023-08-12T09:30:29;4.45;;;3.13;;
47749;SDS011;49810;48.160;10.812;2023-08-12T09:32:59;6.30;;;3.22;;
47749;SDS011;49810;48.160;10.812;2023-08-12T09:35:32;4.22;;;2.97;;
47749;SDS011;49810;48.160;10.812;2023-08-12T09:38:02;7.65;;;3.33;;
47749;SDS011;49810;48.160;10.812;2023-08-12T09:40:31;5.50;;;3.10;;
47749;SDS011;49810;48.160;10.812;2023-08-12T09:43:01;8.35;;;3.40;;
47749;SDS011;49810;48.160;10.812;2023-08-12T09:45:29;4.25;;;3.30;;
47749;SDS011;49810;48.160;10.812;2023-08-12T09:47:59;5.90;;;3.90;;
47749;SDS011;49810;48.160;10.812;2023-08-12T09:50:28;4.75;;;3.30;;
47749;SDS011;49810;48.160;10.812;2023-08-12T09:52:57;4.60;;;3.30;;
47749;SDS011;49810;48.160;10.812;2023-08-12T09:55:25;5.22;;;3.25;;
47749;SDS011;49810;48.160;10.812;2023-08-12T09:57:55;4.97;;;3.03;;
47749;SDS011;49810;48.160;10.812;2023-08-12T10:00:25;4.93;;;2.95;;
47749;SDS011;49810;48.160;10.812;2023-08-12T10:02:54;5.70;;;3.20;;
47749;SDS011;49810;48.160;10.812;2023-08-12T10:05:22;4.47;;;3.00;;
47749;SDS011;49810;48.160;10.812;2023-08-12T10:07:53;4.95;;;3.00;;
47749;SDS011;49810;48.160;10.812;2023-08-12T10:10:21;6.75;;;3.05;;
47749;SDS011;49810;48.160;10.812;2023-08-12T10:12:50;6.60;;;2.92;;
47749;SDS011;49810;48.160;10.812;2023-08-12T10:15:18;4.40;;;2.63;;
47749;SDS011;49810;48.160;10.812;2023-08-12T10:17:47;4.22;;;2.50;;
47749;SDS011;49810;48.160;10.812;2023-08-12T10:20:20;5.22;;;2.42;;
47749;SDS011;49810;48.160;10.812;2023-08-12T10:22:49;3.78;;;2.20;;
47749;SDS011;49810;48.160;10.812;2023-08-12T10:25:18;5.10;;;2.25;;
47749;SDS011;49810;48.160;10.812;2023-08-12T10:27:48;4.22;;;2.60;;
47749;SDS011;49810;48.160;10.812;2023-08-12T10:30:16;6.10;;;2.60;;
47749;SDS011;49810;48.160;10.812;2023-08-12T10:32:45;3.97;;;2.55;;
47749;SDS011;49810;48.160;10.812;2023-08-12T10:35:17;5.43;;;2.90;;
47749;SDS011;49810;48.160;10.812;2023-08-12T10:37:47;4.25;;;2.75;;
47749;SDS011;49810;48.160;10.812;2023-08-12T10:40:20;4.15;;;2.60;;
47749;SDS011;49810;48.160;10.812;2023-08-12T10:42:48;3.83;;;2.65;;
47749;SDS011;49810;48.160;10.812;2023-08-12T10:45:17;7.63;;;2.95;;
47749;SDS011;49810;48.160;10.812;2023-08-12T10:47:47;5.63;;;3.10;;
47749;SDS011;49810;48.160;10.812;2023-08-12T10:50:18;5.05;;;3.22;;
47749;SDS011;49810;48.160;10.812;2023-08-12T10:52:46;4.60;;;2.92;;
47749;SDS011;49810;48.160;10.812;2023-08-12T10:55:20;4.75;;;2.55;;
47749;SDS011;49810;48.160;10.812;2023-08-12T10:57:49;5.30;;;3.03;;
47749;SDS011;49810;48.160;10.812;2023-08-12T11:00:22;4.32;;;2.90;;
47749;SDS011;49810;48.160;10.812;2023-08-12T11:02:53;5.75;;;2.83;;
47749;SDS011;49810;48.160;10.812;2023-08-12T11:05:23;6.18;;;3.20;;
47749;SDS011;49810;48.160;10.812;2023-08-12T11:07:55;4.30;;;2.95;;
47749;SDS011;49810;48.160;10.812;2023-08-12T11:10:24;4.00;;;2.60;;
47749;SDS011;49810;48.160;10.812;2023-08-12T11:12:53;4.78;;;2.95;;
47749;SDS011;49810;48.160;10.812;2023-08-12T11:15:31;5.20;;;3.42;;
47749;SDS011;49810;48.160;10.812;2023-08-12T11:18:01;6.05;;;3.08;;
47749;SDS011;49810;48.160;10.812;2023-08-12T11:20:31;5.25;;;2.65;;
47749;SDS011;49810;48.160;10.812;2023-08-12T11:23:01;6.40;;;2.75;;
47749;SDS011;49810;48.160;10.812;2023-08-12T11:25:30;5.57;;;3.00;;
47749;SDS011;49810;48.160;10.812;2023-08-12T11:28:00;6.13;;;2.97;;
47749;SDS011;49810;48.160;10.812;2023-08-12T11:30:28;4.50;;;2.50;;
47749;SDS011;49810;48.160;10.812;2023-08-12T11:32:59;9.73;;;3.45;;
47749;SDS011;49810;48.160;10.812;2023-08-12T11:35:28;6.35;;;2.92;;
47749;SDS011;49810;48.160;10.812;2023-08-12T11:37:58;4.47;;;3.38;;
47749;SDS011;49810;48.160;10.812;2023-08-12T11:40:26;11.55;;;3.25;;
47749;SDS011;49810;48.160;10.812;2023-08-12T11:42:55;7.20;;;3.30;;
47749;SDS011;49810;48.160;10.812;2023-08-12T11:45:23;12.52;;;3.33;;
47749;SDS011;49810;48.160;10.812;2023-08-12T11:47:52;14.88;;;3.88;;
47749;SDS011;49810;48.160;10.812;2023-08-12T11:50:22;7.82;;;3.35;;
47749;SDS011;49810;48.160;10.812;2023-08-12T11:52:51;5.50;;;3.17;;
47749;SDS011;49810;48.160;10.812;2023-08-12T11:55:21;5.85;;;3.33;;
47749;SDS011;49810;48.160;10.812;2023-08-12T11:57:49;5.68;;;3.30;;
47749;SDS011;49810;48.160;10.812;2023-08-12T12:00:18;6.22;;;3.38;;
47749;SDS011;49810;48.160;10.812;2023-08-12T12:02:48;9.18;;;3.53;;
47749;SDS011;49810;48.160;10.812;2023-08-12T12:05:17;7.25;;;3.08;;
47749;SDS011;49810;48.160;10.812;2023-08-12T12:07:50;7.13;;;3.47;;
47749;SDS011;49810;48.160;10.812;2023-08-12T12:10:21;7.70;;;3.28;;
47749;SDS011;49810;48.160;10.812;2023-08-12T12:12:49;8.20;;;3.60;;
47749;SDS011;49810;48.160;10.812;2023-08-12T12:15:17;7.22;;;3.50;;
47749;SDS011;49810;48.160;10.812;2023-08-12T12:17:47;6.68;;;3.30;;
47749;SDS011;49810;48.160;10.812;2023-08-12T12:20:17;9.23;;;3.53;;
47749;SDS011;49810;48.160;10.812;2023-08-12T12:22:45;6.55;;;3.10;;
47749;SDS011;49810;48.160;10.812;2023-08-12T12:25:13;6.38;;;3.50;;
47749;SDS011;49810;48.160;10.812;2023-08-12T12:27:44;6.72;;;3.22;;
47749;SDS011;49810;48.160;10.812;2023-08-12T12:30:15;7.53;;;3.17;;
47749;SDS011;49810;48.160;10.812;2023-08-12T12:32:44;7.50;;;3.92;;
47749;SDS011;49810;48.160;10.812;2023-08-12T12:35:12;10.80;;;3.88;;
47749;SDS011;49810;48.160;10.812;2023-08-12T12:37:40;7.43;;;3.78;;
47749;SDS011;49810;48.160;10.812;2023-08-12T12:40:09;6.68;;;3.60;;
47749;SDS011;49810;48.160;10.812;2023-08-12T12:42:38;5.10;;;3.67;;
47749;SDS011;49810;48.160;10.812;2023-08-12T12:45:08;5.50;;;3.88;;
47749;SDS011;49810;48.160;10.812;2023-08-12T12:47:36;6.10;;;3.45;;
47749;SDS011;49810;48.160;10.812;2023-08-12T12:50:05;5.22;;;3.42;;
47749;SDS011;49810;48.160;10.812;2023-08-12T12:52:33;5.68;;;3.00;;
47749;SDS011;49810;48.160;10.812;2023-08-12T12:55:01;5.80;;;2.78;;
47749;SDS011;49810;48.160;10.812;2023-08-12T12:57:30;5.80;;;3.03;;
47749;SDS011;49810;48.160;10.812;2023-08-12T13:00:00;6.22;;;3.30;;
47749;SDS011;49810;48.160;10.812;2023-08-12T13:02:32;5.18;;;3.20;;
47749;SDS011;49810;48.160;10.812;2023-08-12T13:05:01;5.20;;;3.10;;
47749;SDS011;49810;48.160;10.812;2023-08-12T13:07:31;6.15;;;3.58;;
47749;SDS011;49810;48.160;10.812;2023-08-12T13:09:58;5.43;;;2.85;;
47749;SDS011;49810;48.160;10.812;2023-08-12T13:12:26;6.00;;;3.15;;
47749;SDS011;49810;48.160;10.812;2023-08-12T13:14:54;7.60;;;3.15;;
47749;SDS011;49810;48.160;10.812;2023-08-12T13:17:24;7.13;;;2.83;;
47749;SDS011;49810;48.160;10.812;2023-08-12T13:19:53;4.97;;;3.30;;
47749;SDS011;49810;48.160;10.812;2023-08-12T13:22:21;5.30;;;3.08;;
47749;SDS011;49810;48.160;10.812;2023-08-12T13:24:49;6.10;;;2.85;;
47749;SDS011;49810;48.160;10.812;2023-08-12T13:27:17;7.20;;;3.08;;
47749;SDS011;49810;48.160;10.812;2023-08-12T13:29:45;7.47;;;3.45;;
47749;SDS011;49810;48.160;10.812;2023-08-12T13:32:13;3.63;;;2.88;;
47749;SDS011;49810;48.160;10.812;2023-08-12T13:34:41;8.30;;;3.38;;
47749;SDS011;49810;48.160;10.812;2023-08-12T13:37:14;5.18;;;3.40;;
47749;SDS011;49810;48.160;10.812;2023-08-12T13:39:42;6.00;;;3.42;;
47749;SDS011;49810;48.160;10.812;2023-08-12T13:42:11;7.05;;;3.25;;
47749;SDS011;49810;48.160;10.812;2023-08-12T13:44:40;8.70;;;3.63;;
47749;SDS011;49810;48.160;10.812;2023-08-12T13:47:08;7.38;;;2.97;;
47749;SDS011;49810;48.160;10.812;2023-08-12T13:49:36;11.55;;;3.55;;
47749;SDS011;49810;48.160;10.812;2023-08-12T13:52:04;6.38;;;3.50;;
47749;SDS011;49810;48.160;10.812;2023-08-12T13:54:33;7.40;;;3.25;;
47749;SDS011;49810;48.160;10.812;2023-08-12T13:57:02;9.02;;;3.60;;
47749;SDS011;49810;48.160;10.812;2023-08-12T13:59:30;7.28;;;3.38;;
47749;SDS011;49810;48.160;10.812;2023-08-12T14:01:58;7.80;;;3.58;;
47749;SDS011;49810;48.160;10.812;2023-08-12T14:04:26;9.50;;;3.65;;
47749;SDS011;49810;48.160;10.812;2023-08-12T14:06:54;7.90;;;3.78;;
47749;SDS011;49810;48.160;10.812;2023-08-12T14:09:22;6.72;;;3.33;;
47749;SDS011;49810;48.160;10.812;2023-08-12T14:11:51;8.52;;;3.60;;
47749;SDS011;49810;48.160;10.812;2023-08-12T14:14:21;9.43;;;3.95;;
47749;SDS011;49810;48.160;10.812;2023-08-12T14:16:49;9.13;;;3.63;;
47749;SDS011;49810;48.160;10.812;2023-08-12T14:19:17;7.43;;;3.33;;
47749;SDS011;49810;48.160;10.812;2023-08-12T14:21:45;6.65;;;2.90;;
47749;SDS011;49810;48.160;10.812;2023-08-12T14:24:13;6.88;;;3.47;;
47749;SDS011;49810;48.160;10.812;2023-08-12T14:26:41;6.30;;;3.47;;
47749;SDS011;49810;48.160;10.812;2023-08-12T14:29:10;4.90;;;3.05;;
47749;SDS011;49810;48.160;10.812;2023-08-12T14:31:38;7.13;;;3.47;;
47749;SDS011;49810;48.160;10.812;2023-08-12T14:34:07;8.73;;;3.30;;
47749;SDS011;49810;48.160;10.812;2023-08-12T14:36:34;6.53;;;3.53;;